Main page
METAR-TAF:

METAR-TAF

Airports :

Beijing, China

Beijing Capital International Airport

latitude: 39-56N, longitude: 116-17E, elevation: 55 m

Current weather observation

The report was made 18 minutes ago, at 21:30 UTC
Wind 2 kt from variable directions
Temperature 12°C
Humidity 58%
Pressure 1005 hPa
Visibility 10 km or more
no clouds below 1500 m and no cumulonimbus

METAR: ZBAA 282130Z VRB01MPS CAVOK 12/04 Q1005 NOSIG

Time: 05:48 (21:48 UTC)

Forecast

The report was made 6 hours and 28 minutes ago, at 15:20 UTC
Forecast valid from 28 at 18 UTC to 29 at 18 UTC
Wind 8 kt from the West/Northwest
Visibility 10 km or more
no clouds below 1500 m and no cumulonimbus

TAF: ZBAA 281520Z 2818/2918 30004MPS CAVOK TX34/2907Z TN12/2821Z

Weather observations and forecasts of more than 4000 airports (METAR and TAF reports).

The available stations are represented by yellow and red dots on the map.

Hover mouse over dot to see the name of the station.

Then click to see weather observations and forecasts.

To change the map : click on the green buttons with a black cross to zoom in, on the green button with a dash to zoom out, or on the green arrows for adjacent maps.


METAR-TAF: